createdAt,value
2019-01-05T00:27:15.142Z,1024.04
2019-01-05T00:27:15.709Z,1024.00
2019-01-05T00:27:16.311Z,1023.97
2019-01-05T00:27:16.908Z,1023.97
2019-01-05T00:27:17.509Z,1023.97
2019-01-05T00:27:18.107Z,1023.96
2019-01-05T00:27:18.708Z,1023.95
2019-01-05T00:27:19.307Z,1023.93
2019-01-05T00:28:13.811Z,1023.96
2019-01-05T00:28:14.383Z,1023.92
2019-01-05T00:28:14.983Z,1023.94
2019-01-05T00:28:15.585Z,1023.92
2019-01-05T00:28:16.184Z,1023.93
2019-01-05T00:28:16.784Z,1023.93
2019-01-05T00:28:17.383Z,1023.89
2019-01-05T00:28:17.985Z,1023.85
2019-01-05T00:29:12.489Z,1023.87
2019-01-05T00:29:13.060Z,1023.84
2019-01-05T00:29:13.664Z,1023.85
2019-01-05T00:29:14.261Z,1023.87
2019-01-05T00:29:14.862Z,1023.85
2019-01-05T00:29:15.461Z,1023.81
2019-01-05T00:29:16.060Z,1023.80
2019-01-05T00:29:16.661Z,1023.78
2019-01-05T00:30:10.141Z,1023.90
2019-01-05T00:30:10.714Z,1023.85
2019-01-05T00:30:11.313Z,1023.85
2019-01-05T00:30:11.914Z,1023.85
2019-01-05T00:30:12.512Z,1023.83
2019-01-05T00:30:13.114Z,1023.84
2019-01-05T00:30:13.712Z,1023.84
2019-01-05T00:30:14.312Z,1023.84
2019-01-05T00:31:07.794Z,1023.92
2019-01-05T00:31:08.366Z,1023.90
2019-01-05T00:31:08.965Z,1023.86
2019-01-05T00:31:09.566Z,1023.87
2019-01-05T00:31:10.165Z,1023.83
2019-01-05T00:31:10.766Z,1023.84
2019-01-05T00:31:11.367Z,1023.85
2019-01-05T00:31:11.965Z,1023.85
2019-01-05T00:32:05.446Z,1023.84
2019-01-05T00:32:06.019Z,1023.89
2019-01-05T00:32:06.619Z,1023.84
2019-01-05T00:32:07.219Z,1023.85
2019-01-05T00:32:07.817Z,1023.82
2019-01-05T00:32:08.417Z,1023.83
2019-01-05T00:32:09.018Z,1023.84
2019-01-05T00:32:09.619Z,1023.86
2019-01-05T00:33:03.097Z,1023.83
2019-01-05T00:33:03.677Z,1023.81
2019-01-05T00:33:04.270Z,1023.76
2019-01-05T00:33:04.868Z,1023.76
2019-01-05T00:33:05.470Z,1023.76
2019-01-05T00:33:06.072Z,1023.76
2019-01-05T00:33:06.670Z,1023.74
2019-01-05T00:33:07.271Z,1023.73
2019-01-05T00:34:01.773Z,1023.78
2019-01-05T00:34:02.350Z,1023.72
2019-01-05T00:34:02.946Z,1023.75
2019-01-05T00:34:03.546Z,1023.71
2019-01-05T00:34:04.146Z,1023.71
2019-01-05T00:34:04.746Z,1023.73
2019-01-05T00:34:05.344Z,1023.70
2019-01-05T00:34:05.946Z,1023.71
2019-01-05T00:38:06.923Z,1023.63
2019-01-05T00:38:07.494Z,1023.64
2019-01-05T00:38:08.096Z,1023.61
2019-01-05T00:38:08.699Z,1023.62
2019-01-05T00:38:09.293Z,1023.60
2019-01-05T00:38:09.900Z,1023.58
2019-01-05T00:38:10.492Z,1023.57
2019-01-05T00:38:11.093Z,1023.60
2019-01-05T00:39:05.597Z,1023.62
2019-01-05T00:39:06.170Z,1023.63
2019-01-05T00:39:06.770Z,1023.65
2019-01-05T00:39:07.371Z,1023.62
2019-01-05T00:39:07.969Z,1023.59
2019-01-05T00:39:08.569Z,1023.61
2019-01-05T00:39:09.169Z,1023.54
2019-01-05T00:39:09.771Z,1023.60
2019-01-05T00:40:05.809Z,1023.60
2019-01-05T00:40:06.383Z,1023.59
2019-01-05T00:40:06.981Z,1023.57
2019-01-05T00:40:07.581Z,1023.60
2019-01-05T00:40:08.180Z,1023.57
2019-01-05T00:40:08.786Z,1023.55
2019-01-05T00:41:02.848Z,1023.58
2019-01-05T00:41:03.419Z,1023.54
2019-01-05T00:41:04.019Z,1023.49
2019-01-05T00:41:04.621Z,1023.57
2019-01-05T00:41:05.224Z,1023.48
2019-01-05T00:41:05.821Z,1023.55
2019-01-05T00:41:06.419Z,1023.56
2019-01-05T00:41:07.020Z,1023.57
2019-01-05T00:42:00.505Z,1023.55
2019-01-05T00:42:01.074Z,1023.51
2019-01-05T00:42:01.673Z,1023.55
2019-01-05T00:42:02.272Z,1023.50
2019-01-05T00:42:02.872Z,1023.51
2019-01-05T00:42:03.473Z,1023.52
2019-01-05T00:42:04.073Z,1023.49
2019-01-05T00:42:04.672Z,1023.50
2019-01-05T00:42:58.153Z,1023.55
2019-01-05T00:42:58.723Z,1023.53
2019-01-05T00:42:59.323Z,1023.49
2019-01-05T00:42:59.924Z,1023.52
2019-01-05T00:43:00.522Z,1023.54
2019-01-05T00:43:01.128Z,1023.56
2019-01-05T00:43:01.725Z,1023.57
2019-01-05T00:43:02.322Z,1023.52
2019-01-05T00:43:55.803Z,1023.53
2019-01-05T00:43:56.376Z,1023.50
2019-01-05T00:43:56.976Z,1023.47
2019-01-05T00:43:57.575Z,1023.49
2019-01-05T00:43:58.175Z,1023.49
2019-01-05T00:43:58.775Z,1023.50
2019-01-05T00:43:59.375Z,1023.50
2019-01-05T00:43:59.975Z,1023.50
2019-01-05T00:44:54.479Z,1023.44
2019-01-05T00:44:55.051Z,1023.41
2019-01-05T00:44:55.650Z,1023.45
2019-01-05T00:44:56.251Z,1023.43
2019-01-05T00:44:56.852Z,1023.40
2019-01-05T00:44:57.449Z,1023.45
2019-01-05T00:44:58.050Z,1023.43
2019-01-05T00:44:58.649Z,1023.44
2019-01-05T00:45:53.157Z,1023.49
2019-01-05T00:45:53.726Z,1023.43
2019-01-05T00:45:54.326Z,1023.44
2019-01-05T00:45:54.926Z,1023.41
2019-01-05T00:45:55.525Z,1023.40
2019-01-05T00:45:56.126Z,1023.41
2019-01-05T00:45:56.726Z,1023.42
2019-01-05T00:45:57.324Z,1023.43
2019-01-05T00:46:50.805Z,1023.50
2019-01-05T00:46:51.378Z,1023.47
2019-01-05T00:46:51.981Z,1023.49
2019-01-05T00:46:52.580Z,1023.49
2019-01-05T00:46:53.178Z,1023.49
2019-01-05T00:46:53.779Z,1023.47
2019-01-05T00:46:54.379Z,1023.46
2019-01-05T00:46:54.977Z,1023.45
2019-01-05T00:47:49.490Z,1023.48
2019-01-05T00:47:50.055Z,1023.46
2019-01-05T00:47:50.653Z,1023.43
2019-01-05T00:47:51.255Z,1023.41
2019-01-05T00:47:51.854Z,1023.41
2019-01-05T00:47:52.455Z,1023.39
2019-01-05T00:47:53.075Z,1023.41
2019-01-05T00:47:53.652Z,1023.43
2019-01-05T00:48:47.133Z,1023.46
2019-01-05T00:48:47.706Z,1023.48
2019-01-05T00:48:48.306Z,1023.44
2019-01-05T00:48:48.907Z,1023.48
2019-01-05T00:48:49.505Z,1023.45
2019-01-05T00:48:50.105Z,1023.45
2019-01-05T00:48:50.705Z,1023.47
2019-01-05T00:48:51.305Z,1023.43
2019-01-05T00:49:45.808Z,1023.48
2019-01-05T00:49:46.380Z,1023.46
2019-01-05T00:49:46.987Z,1023.48
2019-01-05T00:49:47.582Z,1023.46
2019-01-05T00:49:48.182Z,1023.43
2019-01-05T00:49:48.781Z,1023.44
2019-01-05T00:49:49.382Z,1023.38
2019-01-05T00:49:49.981Z,1023.41
2019-01-05T00:50:44.484Z,1023.38
2019-01-05T00:50:45.056Z,1023.39
2019-01-05T00:50:45.659Z,1023.40
2019-01-05T00:50:46.259Z,1023.39
2019-01-05T00:50:46.857Z,1023.35
2019-01-05T00:50:47.456Z,1023.37
2019-01-05T00:50:48.055Z,1023.36
2019-01-05T00:50:48.655Z,1023.37
2019-01-05T00:51:43.160Z,1023.43
2019-01-05T00:51:43.732Z,1023.34
2019-01-05T00:51:44.332Z,1023.32
2019-01-05T00:51:44.932Z,1023.32
2019-01-05T00:51:45.532Z,1023.33
2019-01-05T00:51:46.134Z,1023.35
2019-01-05T00:51:46.733Z,1023.35
2019-01-05T00:51:47.333Z,1023.34
2019-01-05T00:52:41.834Z,1023.47
2019-01-05T00:52:42.409Z,1023.47
2019-01-05T00:52:43.008Z,1023.41
2019-01-05T00:52:43.608Z,1023.41
2019-01-05T00:52:44.208Z,1023.41
2019-01-05T00:52:44.810Z,1023.42
2019-01-05T00:52:45.407Z,1023.41
2019-01-05T00:52:46.007Z,1023.40
2019-01-05T00:53:40.512Z,1023.43
2019-01-05T00:53:41.083Z,1023.43
2019-01-05T00:53:41.683Z,1023.40
2019-01-05T00:53:42.284Z,1023.39
2019-01-05T00:53:42.883Z,1023.40
2019-01-05T00:53:43.486Z,1023.37
2019-01-05T00:53:44.083Z,1023.37
2019-01-05T00:53:44.683Z,1023.38
2019-01-05T00:54:39.190Z,1023.44
2019-01-05T00:54:39.759Z,1023.41
2019-01-05T00:54:40.360Z,1023.39
2019-01-05T00:54:40.958Z,1023.41
2019-01-05T00:54:41.559Z,1023.41
2019-01-05T00:54:42.163Z,1023.38
2019-01-05T00:54:42.760Z,1023.38
2019-01-05T00:54:43.359Z,1023.42
2019-01-05T00:55:36.838Z,1023.47
2019-01-05T00:55:37.411Z,1023.47
2019-01-05T00:55:38.011Z,1023.42
2019-01-05T00:55:38.614Z,1023.38
2019-01-05T00:55:39.211Z,1023.40
2019-01-05T00:55:39.812Z,1023.36
2019-01-05T00:55:40.410Z,1023.37
2019-01-05T00:55:41.010Z,1023.38
2019-01-05T00:56:34.492Z,1023.47
2019-01-05T00:56:35.066Z,1023.47
2019-01-05T00:56:35.664Z,1023.45
2019-01-05T00:56:36.267Z,1023.46
2019-01-05T00:56:36.864Z,1023.42
2019-01-05T00:56:37.464Z,1023.45
2019-01-05T00:56:38.064Z,1023.41
2019-01-05T00:56:38.664Z,1023.43
2019-01-05T00:57:33.165Z,1023.51
2019-01-05T00:57:33.742Z,1023.47
2019-01-05T00:57:34.338Z,1023.40
2019-01-05T00:57:34.939Z,1023.44
2019-01-05T00:57:35.539Z,1023.44
2019-01-05T00:57:36.141Z,1023.45
2019-01-05T00:57:36.738Z,1023.46
2019-01-05T00:57:37.338Z,1023.48
2019-01-05T00:58:30.819Z,1023.47
2019-01-05T00:58:31.392Z,1023.44
2019-01-05T00:58:31.990Z,1023.40
2019-01-05T00:58:32.590Z,1023.42
2019-01-05T00:58:33.191Z,1023.43
2019-01-05T00:58:33.793Z,1023.45
2019-01-05T00:58:34.391Z,1023.43
2019-01-05T00:58:34.989Z,1023.46
2019-01-05T00:59:29.493Z,1023.57
2019-01-05T00:59:30.068Z,1023.55
2019-01-05T00:59:30.666Z,1023.55
2019-01-05T00:59:31.268Z,1023.47
2019-01-05T00:59:31.865Z,1023.50
2019-01-05T00:59:32.465Z,1023.48
2019-01-05T00:59:33.064Z,1023.48
2019-01-05T00:59:33.665Z,1023.50
2019-01-05T01:00:28.169Z,1023.48
2019-01-05T01:00:28.743Z,1023.48
2019-01-05T01:00:29.343Z,1023.50
2019-01-05T01:00:29.941Z,1023.46
2019-01-05T01:00:30.543Z,1023.47
2019-01-05T01:00:31.141Z,1023.53
2019-01-05T01:00:31.744Z,1023.49
2019-01-05T01:00:32.341Z,1023.50
2019-01-05T01:01:26.844Z,1023.47
2019-01-05T01:01:27.418Z,1023.44
2019-01-05T01:01:28.018Z,1023.41
2019-01-05T01:01:28.617Z,1023.42
2019-01-05T01:01:29.218Z,1023.45
2019-01-05T01:01:29.816Z,1023.43
2019-01-05T01:01:30.418Z,1023.42
2019-01-05T01:01:31.017Z,1023.45
2019-01-05T01:02:24.497Z,1023.42
2019-01-05T01:02:25.070Z,1023.40
2019-01-05T01:02:25.670Z,1023.41
2019-01-05T01:02:26.269Z,1023.36
2019-01-05T01:02:26.870Z,1023.40
2019-01-05T01:02:27.470Z,1023.41
2019-01-05T01:02:28.070Z,1023.42
2019-01-05T01:02:28.669Z,1023.41
2019-01-05T01:03:23.174Z,1023.53
2019-01-05T01:03:23.745Z,1023.49
2019-01-05T01:03:24.393Z,1023.49
2019-01-05T01:03:24.945Z,1023.46
2019-01-05T01:03:25.550Z,1023.49
2019-01-05T01:03:26.146Z,1023.51
2019-01-05T01:03:26.748Z,1023.48
2019-01-05T01:03:27.345Z,1023.48
2019-01-05T01:04:20.828Z,1023.52
2019-01-05T01:04:21.400Z,1023.52
2019-01-05T01:04:21.998Z,1023.45
2019-01-05T01:04:22.598Z,1023.47
2019-01-05T01:04:23.208Z,1023.43
2019-01-05T01:04:23.798Z,1023.43
2019-01-05T01:04:24.400Z,1023.42
2019-01-05T01:04:24.997Z,1023.44
2019-01-05T01:05:18.480Z,1023.55
2019-01-05T01:05:19.050Z,1023.52
2019-01-05T01:05:19.650Z,1023.45
2019-01-05T01:05:20.248Z,1023.49
2019-01-05T01:05:20.849Z,1023.43
2019-01-05T01:05:21.451Z,1023.45
2019-01-05T01:05:22.050Z,1023.44
2019-01-05T01:05:22.647Z,1023.46
2019-01-05T01:06:16.129Z,1023.54
2019-01-05T01:06:16.701Z,1023.55
2019-01-05T01:06:17.302Z,1023.55
2019-01-05T01:06:17.900Z,1023.50
2019-01-05T01:06:18.501Z,1023.49
2019-01-05T01:06:19.101Z,1023.46
2019-01-05T01:06:19.702Z,1023.43
2019-01-05T01:06:20.300Z,1023.39
2019-01-05T01:07:14.803Z,1023.35
2019-01-05T01:07:15.376Z,1023.34
2019-01-05T01:07:15.975Z,1023.37
2019-01-05T01:07:16.576Z,1023.35
2019-01-05T01:07:17.179Z,1023.36
2019-01-05T01:07:17.776Z,1023.37
2019-01-05T01:07:18.375Z,1023.36
2019-01-05T01:07:18.974Z,1023.38
2019-01-05T01:08:12.456Z,1023.41
2019-01-05T01:08:13.031Z,1023.36
2019-01-05T01:08:13.629Z,1023.37
2019-01-05T01:08:14.231Z,1023.37
2019-01-05T01:08:14.828Z,1023.37
2019-01-05T01:08:15.429Z,1023.33
2019-01-05T01:08:16.029Z,1023.34
2019-01-05T01:08:16.628Z,1023.37
2019-01-05T01:09:11.130Z,1023.37
2019-01-05T01:09:11.703Z,1023.37
2019-01-05T01:09:12.302Z,1023.40
2019-01-05T01:09:12.903Z,1023.39
2019-01-05T01:09:13.502Z,1023.38
2019-01-05T01:09:14.103Z,1023.40
2019-01-05T01:09:14.707Z,1023.41
2019-01-05T01:09:15.301Z,1023.34
2019-01-05T01:10:09.807Z,1023.34
2019-01-05T01:10:10.381Z,1023.33
2019-01-05T01:10:10.980Z,1023.33
2019-01-05T01:10:11.580Z,1023.31
2019-01-05T01:10:12.178Z,1023.31
2019-01-05T01:10:12.780Z,1023.30
2019-01-05T01:10:13.379Z,1023.33
2019-01-05T01:10:13.977Z,1023.33
2019-01-05T01:11:08.482Z,1023.36
2019-01-05T01:11:09.055Z,1023.35
2019-01-05T01:11:09.657Z,1023.36
2019-01-05T01:11:10.254Z,1023.38
2019-01-05T01:11:10.854Z,1023.36
2019-01-05T01:11:11.456Z,1023.40
2019-01-05T01:11:12.054Z,1023.38
2019-01-05T01:11:12.656Z,1023.37
2019-01-05T01:12:07.157Z,1023.35
2019-01-05T01:12:07.730Z,1023.28
2019-01-05T01:12:08.332Z,1023.30
2019-01-05T01:12:08.931Z,1023.28
2019-01-05T01:12:09.530Z,1023.28
2019-01-05T01:12:10.132Z,1023.27
2019-01-05T01:12:10.730Z,1023.24
2019-01-05T01:12:11.330Z,1023.24
2019-01-05T01:13:05.834Z,1023.31
2019-01-05T01:13:06.406Z,1023.29
2019-01-05T01:13:07.007Z,1023.29
2019-01-05T01:13:07.605Z,1023.32
2019-01-05T01:13:08.205Z,1023.30
2019-01-05T01:13:08.805Z,1023.30
2019-01-05T01:13:09.404Z,1023.28
2019-01-05T01:13:10.010Z,1023.28
2019-01-05T01:14:03.485Z,1023.23
2019-01-05T01:14:04.060Z,1023.23
2019-01-05T01:14:04.660Z,1023.24
2019-01-05T01:14:05.259Z,1023.25
2019-01-05T01:14:05.860Z,1023.24
2019-01-05T01:14:06.458Z,1023.21
2019-01-05T01:14:07.058Z,1023.23
2019-01-05T01:14:07.657Z,1023.26
2019-01-05T01:15:02.160Z,1023.26
2019-01-05T01:15:02.743Z,1023.22
2019-01-05T01:15:03.331Z,1023.24
2019-01-05T01:15:03.936Z,1023.23
2019-01-05T01:15:04.533Z,1023.23
2019-01-05T01:15:05.133Z,1023.26
2019-01-05T01:15:05.733Z,1023.27
2019-01-05T01:15:06.331Z,1023.23
2019-01-05T01:15:59.815Z,1023.23
2019-01-05T01:16:00.387Z,1023.24
2019-01-05T01:16:00.985Z,1023.22
2019-01-05T01:16:01.588Z,1023.22
2019-01-05T01:16:02.186Z,1023.19
2019-01-05T01:16:02.786Z,1023.23
2019-01-05T01:16:03.385Z,1023.19
2019-01-05T01:16:03.986Z,1023.23
2019-01-05T01:16:57.467Z,1023.20
2019-01-05T01:16:58.038Z,1023.20
2019-01-05T01:16:58.638Z,1023.18
2019-01-05T01:16:59.238Z,1023.21
2019-01-05T01:16:59.838Z,1023.18
2019-01-05T01:17:00.438Z,1023.15
2019-01-05T01:17:01.038Z,1023.19
2019-01-05T01:17:01.639Z,1023.13
2019-01-05T01:17:55.118Z,1023.19
2019-01-05T01:17:55.688Z,1023.20
2019-01-05T01:17:56.289Z,1023.18
2019-01-05T01:17:56.890Z,1023.22
2019-01-05T01:17:57.489Z,1023.18
2019-01-05T01:17:58.090Z,1023.18
2019-01-05T01:17:58.689Z,1023.15
2019-01-05T01:17:59.288Z,1023.17
2019-01-05T01:18:53.792Z,1023.16
2019-01-05T01:18:54.364Z,1023.14
2019-01-05T01:18:54.963Z,1023.09
2019-01-05T01:18:55.564Z,1023.14
2019-01-05T01:18:56.165Z,1023.13
2019-01-05T01:18:56.765Z,1023.10
2019-01-05T01:18:57.362Z,1023.09
2019-01-05T01:18:57.966Z,1023.13
2019-01-05T01:19:51.443Z,1023.21
2019-01-05T01:19:52.017Z,1023.17
2019-01-05T01:19:52.616Z,1023.20
2019-01-05T01:19:53.216Z,1023.19
2019-01-05T01:19:53.817Z,1023.17
2019-01-05T01:19:54.417Z,1023.18
2019-01-05T01:19:55.021Z,1023.18
2019-01-05T01:19:55.616Z,1023.20
2019-01-05T01:20:49.097Z,1023.12
2019-01-05T01:20:49.669Z,1023.14
2019-01-05T01:20:50.270Z,1023.11
2019-01-05T01:20:50.869Z,1023.14
2019-01-05T01:20:51.468Z,1023.11
2019-01-05T01:20:52.070Z,1023.15
2019-01-05T01:20:52.669Z,1023.14
2019-01-05T01:20:53.268Z,1023.12
2019-01-05T01:21:47.771Z,1023.16
2019-01-05T01:21:48.355Z,1023.16
2019-01-05T01:21:48.941Z,1023.14
2019-01-05T01:21:49.542Z,1023.15
2019-01-05T01:21:50.141Z,1023.12
2019-01-05T01:21:50.741Z,1023.14
2019-01-05T01:21:51.340Z,1023.13
2019-01-05T01:21:51.941Z,1023.15
2019-01-05T01:22:45.424Z,1023.07
2019-01-05T01:22:45.997Z,1023.09
2019-01-05T01:22:46.597Z,1023.09
2019-01-05T01:22:47.196Z,1023.16
2019-01-05T01:22:47.795Z,1023.12
2019-01-05T01:22:48.396Z,1023.11
2019-01-05T01:22:48.997Z,1023.13
2019-01-05T01:22:49.595Z,1023.08
2019-01-05T01:23:43.079Z,1023.16
2019-01-05T01:23:43.648Z,1023.15
2019-01-05T01:23:44.251Z,1023.18
2019-01-05T01:23:44.847Z,1023.15
2019-01-05T01:23:45.447Z,1023.12
2019-01-05T01:23:46.096Z,1023.13
2019-01-05T01:23:46.648Z,1023.10
2019-01-05T01:23:47.246Z,1023.09
2019-01-05T01:24:40.725Z,1023.19
2019-01-05T01:24:41.302Z,1023.12
2019-01-05T01:24:41.900Z,1023.13
2019-01-05T01:24:42.508Z,1023.11
2019-01-05T01:24:43.100Z,1023.12
2019-01-05T01:24:43.699Z,1023.09
2019-01-05T01:24:44.301Z,1023.13
2019-01-05T01:24:44.899Z,1023.13
2019-01-05T01:25:39.400Z,1023.18
2019-01-05T01:25:39.975Z,1023.16
2019-01-05T01:25:40.574Z,1023.14
2019-01-05T01:25:41.174Z,1023.13
2019-01-05T01:25:41.775Z,1023.09
2019-01-05T01:25:42.376Z,1023.11
2019-01-05T01:25:42.974Z,1023.11
2019-01-05T01:25:43.577Z,1023.11
2019-01-05T01:26:38.076Z,1023.13
2019-01-05T01:26:38.651Z,1023.12
2019-01-05T01:26:39.249Z,1023.12
2019-01-05T01:26:39.851Z,1023.09
2019-01-05T01:26:40.449Z,1023.12
2019-01-05T01:26:41.051Z,1023.17
2019-01-05T01:26:41.653Z,1023.15
2019-01-05T01:26:42.250Z,1023.16
2019-01-05T01:27:36.751Z,1023.14
2019-01-05T01:27:37.327Z,1023.15
2019-01-05T01:27:37.925Z,1023.11
2019-01-05T01:27:38.525Z,1023.13
2019-01-05T01:27:39.124Z,1023.13
2019-01-05T01:27:39.724Z,1023.11
2019-01-05T01:27:40.325Z,1023.14
2019-01-05T01:27:40.925Z,1023.14
2019-01-05T01:28:34.406Z,1023.12
2019-01-05T01:28:34.977Z,1023.14
2019-01-05T01:28:35.579Z,1023.11
2019-01-05T01:28:36.177Z,1023.13
2019-01-05T01:28:36.780Z,1023.12
2019-01-05T01:28:37.378Z,1023.15
2019-01-05T01:28:37.977Z,1023.14
2019-01-05T01:28:38.577Z,1023.15
2019-01-05T01:29:33.080Z,1023.19
2019-01-05T01:29:33.654Z,1023.23
2019-01-05T01:29:34.258Z,1023.19
2019-01-05T01:29:34.853Z,1023.22
2019-01-05T01:29:35.453Z,1023.20
2019-01-05T01:29:36.052Z,1023.17
2019-01-05T01:29:36.652Z,1023.16
2019-01-05T01:29:37.253Z,1023.15
2019-01-05T01:30:31.758Z,1023.20
2019-01-05T01:30:32.330Z,1023.16
2019-01-05T01:30:32.929Z,1023.18
2019-01-05T01:30:33.528Z,1023.19
2019-01-05T01:30:34.128Z,1023.22
2019-01-05T01:30:34.728Z,1023.23
2019-01-05T01:30:35.329Z,1023.24
2019-01-05T01:30:35.928Z,1023.25
2019-01-05T01:31:29.408Z,1023.19
2019-01-05T01:31:29.981Z,1023.16
2019-01-05T01:31:30.580Z,1023.17
2019-01-05T01:31:31.182Z,1023.16
2019-01-05T01:31:31.781Z,1023.13
2019-01-05T01:31:32.382Z,1023.14
2019-01-05T01:31:32.980Z,1023.16
2019-01-05T01:31:33.579Z,1023.16
2019-01-05T01:32:27.062Z,1023.21
2019-01-05T01:32:27.634Z,1023.21
2019-01-05T01:32:28.232Z,1023.18
2019-01-05T01:32:28.832Z,1023.20
2019-01-05T01:32:29.432Z,1023.21
2019-01-05T01:32:30.034Z,1023.18
2019-01-05T01:32:30.634Z,1023.22
2019-01-05T01:32:31.232Z,1023.22
2019-01-05T01:33:25.736Z,1023.23
2019-01-05T01:33:26.308Z,1023.21
2019-01-05T01:33:26.909Z,1023.17
2019-01-05T01:33:27.508Z,1023.16
2019-01-05T01:33:28.108Z,1023.18
2019-01-05T01:33:28.707Z,1023.12
2019-01-05T01:33:29.308Z,1023.00
2019-01-05T01:33:29.907Z,1023.03
2019-01-05T01:34:23.395Z,1023.26
2019-01-05T01:34:23.961Z,1023.23
2019-01-05T01:34:24.560Z,1023.24
2019-01-05T01:34:25.160Z,1023.22
2019-01-05T01:34:25.760Z,1023.22
2019-01-05T01:34:26.361Z,1023.22
2019-01-05T01:34:26.960Z,1023.17
2019-01-05T01:34:27.562Z,1023.20
2019-01-05T01:35:22.062Z,1023.26
2019-01-05T01:35:22.636Z,1023.25
2019-01-05T01:35:23.235Z,1023.22
2019-01-05T01:35:23.837Z,1023.22
2019-01-05T01:35:24.435Z,1023.21
2019-01-05T01:35:25.034Z,1023.23
2019-01-05T01:35:25.634Z,1023.24
2019-01-05T01:35:26.237Z,1023.23
2019-01-05T01:36:19.716Z,1023.31
2019-01-05T01:36:20.287Z,1023.26
2019-01-05T01:36:20.888Z,1023.25
2019-01-05T01:36:21.488Z,1023.28
2019-01-05T01:36:22.090Z,1023.25
2019-01-05T01:36:22.687Z,1023.22
2019-01-05T01:36:23.289Z,1023.25
2019-01-05T01:36:23.890Z,1023.25
2019-01-05T01:37:18.389Z,1023.26
2019-01-05T01:37:18.963Z,1023.23
2019-01-05T01:37:19.563Z,1023.20
2019-01-05T01:37:20.163Z,1023.20
2019-01-05T01:37:20.764Z,1023.22
2019-01-05T01:37:21.364Z,1023.22
2019-01-05T01:37:21.962Z,1023.23
2019-01-05T01:37:22.564Z,1023.20
2019-01-05T01:38:16.045Z,1023.25
2019-01-05T01:38:16.616Z,1023.22
2019-01-05T01:38:17.215Z,1023.20
2019-01-05T01:38:17.816Z,1023.22
2019-01-05T01:38:18.416Z,1023.22
2019-01-05T01:38:19.015Z,1023.17
2019-01-05T01:38:19.615Z,1023.16
2019-01-05T01:38:20.214Z,1023.16
2019-01-05T01:39:13.694Z,1023.20
2019-01-05T01:39:14.265Z,1023.18
2019-01-05T01:39:14.868Z,1023.20
2019-01-05T01:39:15.469Z,1023.15
2019-01-05T01:39:16.069Z,1023.19
2019-01-05T01:39:16.667Z,1023.18
2019-01-05T01:39:17.266Z,1023.15
2019-01-05T01:39:17.866Z,1023.16
2019-01-05T01:40:11.345Z,1023.16
2019-01-05T01:40:11.919Z,1023.17
2019-01-05T01:40:12.522Z,1023.15
2019-01-05T01:40:13.118Z,1023.16
2019-01-05T01:40:13.717Z,1023.13
2019-01-05T01:40:14.321Z,1023.16
2019-01-05T01:40:14.920Z,1023.13
2019-01-05T01:40:15.518Z,1023.18
2019-01-05T01:41:10.019Z,1023.32
2019-01-05T01:41:10.602Z,1023.31
2019-01-05T01:41:11.193Z,1023.28
2019-01-05T01:41:11.793Z,1023.26
2019-01-05T01:41:12.394Z,1023.21
2019-01-05T01:41:12.994Z,1023.24
2019-01-05T01:41:13.593Z,1023.24
2019-01-05T01:41:14.193Z,1023.23
2019-01-05T01:42:08.696Z,1023.25
2019-01-05T01:42:09.269Z,1023.19
2019-01-05T01:42:09.869Z,1023.21
2019-01-05T01:42:10.469Z,1023.20
2019-01-05T01:42:11.069Z,1023.20
2019-01-05T01:42:11.715Z,1023.21
2019-01-05T01:42:12.269Z,1023.21
2019-01-05T01:42:12.869Z,1023.20
2019-01-05T01:43:06.349Z,1023.28
2019-01-05T01:43:06.924Z,1023.25
2019-01-05T01:43:07.522Z,1023.23
2019-01-05T01:43:08.122Z,1023.24
2019-01-05T01:43:08.722Z,1023.24
2019-01-05T01:43:09.325Z,1023.22
2019-01-05T01:43:09.921Z,1023.23
2019-01-05T01:43:10.521Z,1023.24
2019-01-05T01:44:05.031Z,1023.33
2019-01-05T01:44:05.596Z,1023.28
2019-01-05T01:44:06.196Z,1023.31
2019-01-05T01:44:06.796Z,1023.32
2019-01-05T01:44:07.395Z,1023.33
2019-01-05T01:44:07.998Z,1023.27
2019-01-05T01:44:08.596Z,1023.29
2019-01-05T01:44:09.196Z,1023.30
2019-01-05T01:45:03.699Z,1023.29
2019-01-05T01:45:04.272Z,1023.23
2019-01-05T01:45:04.874Z,1023.23
2019-01-05T01:45:05.492Z,1023.24
2019-01-05T01:45:06.072Z,1023.22
2019-01-05T01:45:06.673Z,1023.21
2019-01-05T01:45:07.272Z,1023.21
2019-01-05T01:45:07.871Z,1023.17
2019-01-05T01:46:02.376Z,1023.25
2019-01-05T01:46:02.947Z,1023.27
2019-01-05T01:46:03.549Z,1023.27
2019-01-05T01:46:04.148Z,1023.24
2019-01-05T01:46:04.748Z,1023.25
2019-01-05T01:46:05.347Z,1023.27
2019-01-05T01:46:05.949Z,1023.27
2019-01-05T01:46:06.548Z,1023.24
2019-01-05T01:47:01.051Z,1023.18
2019-01-05T01:47:01.623Z,1023.21
2019-01-05T01:47:02.223Z,1023.23
2019-01-05T01:47:02.827Z,1023.24
2019-01-05T01:47:03.424Z,1023.28
2019-01-05T01:47:04.027Z,1023.32
2019-01-05T01:47:04.623Z,1023.32
2019-01-05T01:47:05.223Z,1023.31
2019-01-05T01:47:58.706Z,1023.34
2019-01-05T01:47:59.279Z,1023.33
2019-01-05T01:47:59.876Z,1023.32
2019-01-05T01:48:00.475Z,1023.28
2019-01-05T01:48:01.076Z,1023.26
2019-01-05T01:48:01.677Z,1023.26
2019-01-05T01:48:02.274Z,1023.29
2019-01-05T01:48:02.875Z,1023.24
2019-01-05T01:48:57.379Z,1023.27
2019-01-05T01:48:57.951Z,1023.23
2019-01-05T01:48:58.551Z,1023.17
2019-01-05T01:48:59.152Z,1023.25
2019-01-05T01:48:59.750Z,1023.22
2019-01-05T01:49:00.351Z,1023.21
2019-01-05T01:49:00.951Z,1023.19
2019-01-05T01:49:01.551Z,1023.22
2019-01-05T01:49:55.030Z,1023.32
2019-01-05T01:49:55.604Z,1023.31
2019-01-05T01:49:56.204Z,1023.32
2019-01-05T01:49:56.803Z,1023.33
2019-01-05T01:49:57.404Z,1023.32
2019-01-05T01:49:58.003Z,1023.29
2019-01-05T01:49:58.603Z,1023.25
2019-01-05T01:49:59.205Z,1023.29
2019-01-05T01:50:53.704Z,1023.38
2019-01-05T01:50:54.279Z,1023.41
2019-01-05T01:50:54.879Z,1023.34
2019-01-05T01:50:55.478Z,1023.36
2019-01-05T01:50:56.078Z,1023.34
2019-01-05T01:50:56.677Z,1023.34
2019-01-05T01:50:57.279Z,1023.32
2019-01-05T01:50:57.878Z,1023.34
2019-01-05T01:51:52.382Z,1023.31
2019-01-05T01:51:52.955Z,1023.31
2019-01-05T01:51:53.556Z,1023.29
2019-01-05T01:51:54.153Z,1023.28
2019-01-05T01:51:54.755Z,1023.27
2019-01-05T01:51:55.354Z,1023.25
2019-01-05T01:51:55.953Z,1023.24
2019-01-05T01:51:56.553Z,1023.25
2019-01-05T01:52:51.057Z,1023.30
2019-01-05T01:52:51.632Z,1023.30
2019-01-05T01:52:52.230Z,1023.27
2019-01-05T01:52:52.831Z,1023.27
2019-01-05T01:52:53.429Z,1023.25
2019-01-05T01:52:54.031Z,1023.26
2019-01-05T01:52:54.630Z,1023.28
2019-01-05T01:52:55.229Z,1023.31
2019-01-05T01:53:49.733Z,1023.35
2019-01-05T01:53:50.308Z,1023.30
2019-01-05T01:53:50.909Z,1023.33
2019-01-05T01:53:51.506Z,1023.34
2019-01-05T01:53:52.105Z,1023.35
2019-01-05T01:53:52.707Z,1023.35
2019-01-05T01:53:53.306Z,1023.37
2019-01-05T01:53:53.905Z,1023.34
2019-01-05T01:54:48.408Z,1023.35
2019-01-05T01:54:48.982Z,1023.36
2019-01-05T01:54:49.581Z,1023.34
2019-01-05T01:54:50.181Z,1023.35
2019-01-05T01:54:50.782Z,1023.33
2019-01-05T01:54:51.380Z,1023.35
2019-01-05T01:54:51.981Z,1023.37
2019-01-05T01:54:52.580Z,1023.33
2019-01-05T01:55:46.062Z,1023.36
2019-01-05T01:55:46.633Z,1023.33
2019-01-05T01:55:47.233Z,1023.29
2019-01-05T01:55:47.833Z,1023.30
2019-01-05T01:55:48.433Z,1023.33
2019-01-05T01:55:49.035Z,1023.36
2019-01-05T01:55:49.634Z,1023.38
2019-01-05T01:55:50.232Z,1023.38
2019-01-05T01:56:44.737Z,1023.37
2019-01-05T01:56:45.308Z,1023.35
2019-01-05T01:56:45.909Z,1023.34
2019-01-05T01:56:46.510Z,1023.34
2019-01-05T01:56:47.109Z,1023.36
2019-01-05T01:56:47.708Z,1023.32
2019-01-05T01:56:48.307Z,1023.30
2019-01-05T01:56:48.909Z,1023.35
2019-01-05T01:57:43.413Z,1023.34
2019-01-05T01:57:43.986Z,1023.28
2019-01-05T01:57:44.586Z,1023.29
2019-01-05T01:57:45.185Z,1023.30
2019-01-05T01:57:45.784Z,1023.29
2019-01-05T01:57:46.386Z,1023.28
2019-01-05T01:57:46.983Z,1023.26
2019-01-05T01:57:47.584Z,1023.28